createdAt,value
2017-12-25T00:01:58.986Z,7.64
2017-12-25T00:04:28.773Z,7.57
2017-12-25T00:06:59.469Z,7.56
2017-12-25T00:09:28.449Z,7.51
2017-12-25T00:11:57.348Z,7.56
2017-12-25T00:17:01.071Z,7.58
2017-12-25T00:19:30.010Z,7.61
2017-12-25T00:22:01.046Z,7.67
2017-12-25T00:24:31.883Z,7.75
2017-12-25T00:27:01.082Z,7.78
2017-12-25T00:29:31.240Z,7.80
2017-12-25T00:32:01.322Z,7.79
2017-12-25T00:34:30.211Z,7.84
2017-12-25T00:36:59.554Z,7.89
2017-12-25T00:39:28.666Z,7.88
2017-12-25T00:41:58.665Z,7.90
2017-12-25T00:44:29.308Z,7.93
2017-12-25T00:46:58.350Z,7.98
2017-12-25T00:49:29.067Z,8.00
2017-12-25T00:51:58.003Z,7.93
2017-12-25T00:54:27.040Z,7.88
2017-12-25T00:56:57.789Z,7.90
2017-12-25T01:02:02.422Z,7.88
2017-12-25T01:04:31.622Z,7.82
2017-12-25T01:07:03.138Z,7.83
2017-12-25T01:09:32.937Z,7.74
2017-12-25T01:12:02.767Z,7.62
2017-12-25T01:14:31.797Z,7.58
2017-12-25T01:17:02.530Z,7.52
2017-12-25T01:19:31.423Z,7.39
2017-12-25T01:22:02.326Z,7.22
2017-12-25T01:24:31.217Z,7.16
2017-12-25T01:27:01.132Z,7.16
2017-12-25T01:29:31.081Z,7.21
2017-12-25T01:32:00.042Z,7.20
2017-12-25T01:34:30.262Z,7.27
2017-12-25T01:37:00.055Z,7.28
2017-12-25T01:39:29.074Z,7.31
2017-12-25T01:41:59.026Z,7.29
2017-12-25T01:44:28.883Z,7.30
2017-12-25T01:47:07.013Z,7.33
2017-12-25T01:49:36.111Z,7.43
2017-12-25T01:52:05.817Z,7.43
2017-12-25T01:54:36.289Z,7.46
2017-12-25T02:00:22.257Z,7.39
2017-12-25T02:02:51.921Z,7.41
2017-12-25T02:05:49.224Z,7.43
2017-12-25T02:11:17.831Z,7.37
2017-12-25T02:13:46.751Z,7.32
2017-12-25T02:16:15.502Z,7.22
2017-12-25T02:18:46.994Z,7.16
2017-12-25T02:21:16.977Z,7.19
2017-12-25T02:23:45.919Z,7.32
2017-12-25T02:26:16.689Z,7.28
2017-12-25T02:28:45.734Z,7.36
2017-12-25T02:31:15.571Z,7.36
2017-12-25T02:33:48.089Z,7.41
2017-12-25T02:36:18.218Z,7.41
2017-12-25T02:38:47.957Z,7.48
2017-12-25T02:43:50.704Z,7.43
2017-12-25T02:46:20.637Z,7.43
2017-12-25T02:48:49.732Z,7.50
2017-12-25T02:51:20.396Z,7.48
2017-12-25T02:53:49.497Z,7.53
2017-12-25T02:56:19.475Z,7.59
2017-12-25T02:58:48.571Z,7.56
2017-12-25T03:01:17.566Z,7.56
2017-12-25T03:03:50.246Z,7.53
2017-12-25T03:06:19.236Z,7.61
2017-12-25T03:08:48.350Z,7.61
2017-12-25T03:11:17.258Z,7.56
2017-12-25T03:13:46.313Z,7.59
2017-12-25T03:16:15.562Z,7.53
2017-12-25T03:18:47.465Z,7.52
2017-12-25T03:21:16.308Z,7.51
2017-12-25T03:23:45.474Z,7.36
2017-12-25T03:26:17.149Z,7.31
2017-12-25T03:28:46.957Z,7.29
2017-12-25T03:31:15.944Z,7.28
2017-12-25T03:33:46.704Z,7.25
2017-12-25T03:36:16.892Z,7.26
2017-12-25T03:38:45.846Z,7.08
2017-12-25T03:43:51.782Z,7.04
2017-12-25T03:46:20.691Z,7.01
2017-12-25T03:48:50.623Z,7.06
2017-12-25T03:51:19.577Z,7.09
2017-12-25T03:53:48.573Z,7.15
2017-12-25T03:56:17.718Z,7.10
2017-12-25T03:58:46.770Z,7.02
2017-12-25T04:01:19.399Z,6.90
2017-12-25T04:03:49.261Z,6.90
2017-12-25T04:06:18.505Z,6.93
2017-12-25T04:08:50.106Z,6.99
2017-12-25T04:11:19.208Z,6.96
2017-12-25T04:13:48.193Z,6.98
2017-12-25T04:16:17.194Z,6.93
2017-12-25T04:18:47.859Z,6.95
2017-12-25T04:21:16.826Z,6.92
2017-12-25T04:23:46.942Z,6.89
2017-12-25T04:26:16.912Z,6.81
2017-12-25T04:28:45.849Z,6.85
2017-12-25T04:31:16.590Z,6.90
2017-12-25T04:33:45.673Z,6.96
2017-12-25T04:36:14.674Z,6.99
2017-12-25T04:38:46.331Z,7.04
2017-12-25T04:41:17.960Z,7.02
2017-12-25T04:43:49.714Z,6.99
2017-12-25T04:46:18.669Z,6.98
2017-12-25T04:48:49.933Z,6.98
2017-12-25T04:51:19.700Z,6.88
2017-12-25T04:53:49.451Z,6.92
2017-12-25T04:56:18.401Z,6.84
2017-12-25T04:58:47.638Z,6.91
2017-12-25T05:01:16.538Z,6.92
2017-12-25T05:03:46.510Z,6.84
2017-12-25T05:06:17.509Z,6.88
2017-12-25T05:08:47.507Z,6.93
2017-12-25T05:11:16.433Z,6.92
2017-12-25T05:13:46.416Z,6.96
2017-12-25T05:16:15.410Z,7.02
2017-12-25T05:18:44.409Z,7.08
2017-12-25T05:21:15.781Z,7.04
2017-12-25T05:23:44.910Z,7.06
2017-12-25T05:26:13.889Z,7.12
2017-12-25T05:28:42.910Z,7.09
2017-12-25T05:31:12.605Z,7.15
2017-12-25T05:33:42.315Z,7.15
2017-12-25T05:36:12.444Z,7.13
2017-12-25T05:38:42.161Z,7.12
2017-12-25T05:41:11.185Z,7.11
2017-12-25T05:43:42.134Z,7.09
2017-12-25T05:46:12.489Z,7.15
2017-12-25T05:48:41.438Z,7.20
2017-12-25T05:53:44.803Z,7.21
2017-12-25T05:56:14.012Z,7.18
2017-12-25T05:58:44.747Z,7.19
2017-12-25T06:01:13.771Z,7.28
2017-12-25T06:03:43.772Z,7.30
2017-12-25T06:06:13.865Z,7.37
2017-12-25T06:08:43.341Z,7.39
2017-12-25T06:11:13.502Z,7.24
2017-12-25T06:13:42.592Z,7.31
2017-12-25T06:16:11.777Z,7.42
2017-12-25T06:18:40.981Z,7.49
2017-12-25T06:21:10.091Z,7.48
2017-12-25T06:23:39.160Z,7.59
2017-12-25T06:26:09.102Z,7.66
2017-12-25T06:28:39.165Z,7.71
2017-12-25T06:31:10.250Z,7.76
2017-12-25T06:33:41.866Z,7.83
2017-12-25T06:36:11.316Z,7.90
2017-12-25T06:38:41.113Z,7.98
2017-12-25T06:41:12.445Z,8.06
2017-12-25T06:43:41.639Z,8.13
2017-12-25T06:46:11.467Z,8.14
2017-12-25T06:48:43.668Z,8.21
2017-12-25T06:51:13.718Z,8.26
2017-12-25T06:53:43.581Z,8.31
2017-12-25T06:56:13.617Z,8.35
2017-12-25T06:58:42.636Z,8.33
2017-12-25T07:01:12.541Z,8.44
2017-12-25T07:03:41.860Z,8.52
2017-12-25T07:06:12.502Z,8.58
2017-12-25T07:08:42.033Z,8.61
2017-12-25T07:13:45.718Z,8.64
2017-12-25T07:16:14.819Z,8.68
2017-12-25T07:18:44.049Z,8.73
2017-12-25T07:21:17.413Z,8.75
2017-12-25T07:23:47.363Z,8.75
2017-12-25T07:26:16.359Z,8.76
2017-12-25T07:28:47.202Z,8.82
2017-12-25T07:31:19.131Z,8.86
2017-12-25T07:33:48.220Z,8.92
2017-12-25T07:36:17.304Z,9.00
2017-12-25T07:38:47.267Z,9.05
2017-12-25T07:41:17.142Z,9.12
2017-12-25T07:43:46.284Z,9.20
2017-12-25T07:46:15.333Z,9.23
2017-12-25T07:48:45.369Z,9.18
2017-12-25T07:51:14.293Z,9.20
2017-12-25T07:53:44.296Z,9.27
2017-12-25T07:56:13.551Z,9.34
2017-12-25T07:58:42.667Z,9.34
2017-12-25T08:01:15.336Z,9.41
2017-12-25T08:03:45.374Z,9.53
2017-12-25T08:06:14.486Z,9.55
2017-12-25T08:08:45.903Z,9.60
2017-12-25T08:11:14.898Z,9.67
2017-12-25T08:13:44.740Z,9.65
2017-12-25T08:18:48.171Z,9.78
2017-12-25T08:21:18.977Z,9.84
2017-12-25T08:23:50.107Z,9.86
2017-12-25T08:26:19.451Z,9.85
2017-12-25T08:28:49.584Z,9.96
2017-12-25T08:31:23.952Z,10.09
2017-12-25T08:33:53.430Z,10.21
2017-12-25T08:36:23.939Z,10.25
2017-12-25T08:38:54.154Z,10.24
2017-12-25T08:41:23.243Z,10.35
2017-12-25T08:43:52.466Z,10.43
2017-12-25T08:46:24.155Z,10.47
2017-12-25T08:48:53.251Z,10.47
2017-12-25T08:51:23.028Z,10.56
2017-12-25T08:53:55.753Z,10.67
2017-12-25T08:56:25.080Z,10.66
2017-12-25T08:58:55.430Z,10.74
2017-12-25T09:01:24.529Z,10.84
2017-12-25T09:03:53.647Z,10.90
2017-12-25T09:06:23.201Z,10.98
2017-12-25T09:08:54.090Z,11.06
2017-12-25T09:11:23.309Z,11.11
2017-12-25T09:13:52.300Z,11.17
2017-12-25T09:16:23.116Z,11.21
2017-12-25T09:18:53.906Z,11.28
2017-12-25T09:21:23.085Z,11.39
2017-12-25T09:23:52.166Z,11.45
2017-12-25T09:26:22.482Z,11.50
2017-12-25T09:28:51.739Z,11.58
2017-12-25T09:31:24.471Z,11.61
2017-12-25T09:33:53.610Z,11.75
2017-12-25T09:36:25.026Z,11.77
2017-12-25T09:41:29.462Z,11.98
2017-12-25T09:44:00.259Z,11.98
2017-12-25T09:46:29.437Z,12.07
2017-12-25T09:48:59.753Z,12.09
2017-12-25T09:51:29.879Z,12.18
2017-12-25T09:54:00.032Z,12.28
2017-12-25T09:56:29.360Z,12.34
2017-12-25T09:58:58.615Z,12.33
2017-12-25T10:01:28.209Z,12.42
2017-12-25T10:03:58.630Z,12.54
2017-12-25T10:06:31.614Z,12.53
2017-12-25T10:09:00.831Z,12.65
2017-12-25T10:11:30.795Z,12.61
2017-12-25T10:13:59.987Z,12.71
2017-12-25T10:16:30.016Z,12.82
2017-12-25T10:18:59.060Z,12.87
2017-12-25T10:21:30.006Z,12.96
2017-12-25T10:23:59.133Z,13.00
2017-12-25T10:26:30.076Z,13.04
2017-12-25T10:29:00.190Z,13.16
2017-12-25T10:31:29.489Z,13.24
2017-12-25T10:33:59.660Z,13.37
2017-12-25T10:36:29.585Z,13.44
2017-12-25T10:38:58.941Z,13.55
2017-12-25T10:41:28.289Z,13.63
2017-12-25T10:43:57.614Z,13.69
2017-12-25T10:46:26.630Z,13.80
2017-12-25T10:48:56.232Z,13.85
2017-12-25T10:51:25.639Z,13.90
2017-12-25T10:53:55.785Z,13.96
2017-12-25T10:56:25.484Z,14.03
2017-12-25T11:01:30.029Z,14.15
2017-12-25T11:04:00.179Z,14.17
2017-12-25T11:06:29.595Z,14.19
2017-12-25T11:08:58.588Z,14.22
2017-12-25T11:11:27.690Z,14.26
2017-12-25T11:13:57.602Z,14.29
2017-12-25T11:16:28.682Z,14.39
2017-12-25T11:18:58.662Z,14.41
2017-12-25T11:21:28.683Z,14.50
2017-12-25T11:23:58.825Z,14.58
2017-12-25T11:26:29.495Z,14.58
2017-12-25T11:28:58.573Z,14.61
2017-12-25T11:31:28.438Z,14.60
2017-12-25T11:33:58.921Z,14.69
2017-12-25T11:36:29.194Z,14.75
2017-12-25T11:38:58.213Z,14.77
2017-12-25T11:41:31.465Z,14.81
2017-12-25T11:44:00.440Z,14.82
2017-12-25T11:46:29.392Z,14.83
2017-12-25T11:49:00.135Z,14.91
2017-12-25T11:51:31.144Z,14.94
2017-12-25T11:54:00.134Z,14.95
2017-12-25T11:59:03.961Z,14.98
2017-12-25T12:01:33.874Z,14.99
2017-12-25T12:04:03.520Z,15.04
2017-12-25T12:06:33.861Z,15.04
2017-12-25T12:09:03.257Z,15.06
2017-12-25T12:11:32.309Z,15.11
2017-12-25T12:14:03.221Z,15.12
2017-12-25T12:16:33.301Z,15.12
2017-12-25T12:19:02.628Z,15.12
2017-12-25T12:21:31.915Z,15.10
2017-12-25T12:24:07.984Z,15.09
2017-12-25T12:26:37.996Z,15.06
2017-12-25T12:29:07.080Z,15.06
2017-12-25T12:31:37.540Z,15.06
2017-12-25T12:34:07.439Z,15.19
2017-12-25T12:36:37.440Z,15.16
2017-12-25T12:39:06.750Z,15.25
2017-12-25T12:41:38.575Z,15.26
2017-12-25T12:44:07.559Z,15.25
2017-12-25T12:46:37.381Z,15.20
2017-12-25T12:49:08.841Z,15.32
2017-12-25T12:51:37.844Z,15.26
2017-12-25T12:54:06.910Z,15.28
2017-12-25T12:56:37.873Z,15.26
2017-12-25T12:59:07.639Z,15.23
2017-12-25T13:01:36.886Z,15.18
2017-12-25T13:04:07.593Z,15.19
2017-12-25T13:06:37.714Z,15.09
2017-12-25T13:09:06.839Z,15.05
2017-12-25T13:11:36.233Z,15.07
2017-12-25T13:14:07.420Z,15.00
2017-12-25T13:19:12.805Z,14.97
2017-12-25T13:21:41.853Z,14.96
2017-12-25T13:24:13.818Z,14.98
2017-12-25T13:26:43.132Z,14.93
2017-12-25T13:29:12.163Z,14.92
2017-12-25T13:31:42.797Z,14.87
2017-12-25T13:34:12.673Z,14.87
2017-12-25T13:36:42.634Z,14.86
2017-12-25T13:39:11.712Z,14.86
2017-12-25T13:41:40.712Z,14.78
2017-12-25T13:44:09.820Z,14.76
2017-12-25T13:46:40.658Z,14.72
2017-12-25T13:49:09.894Z,14.68
2017-12-25T13:51:40.277Z,14.56
2017-12-25T13:54:09.338Z,14.57
2017-12-25T13:56:38.421Z,14.50
2017-12-25T13:59:07.370Z,14.47
2017-12-25T14:01:37.525Z,14.50
2017-12-25T14:04:06.524Z,14.40
2017-12-25T14:06:35.509Z,14.41
2017-12-25T14:11:39.812Z,14.23
2017-12-25T14:14:09.009Z,14.25
2017-12-25T14:16:38.843Z,14.26
2017-12-25T14:19:07.750Z,14.17
2017-12-25T14:21:36.644Z,14.11
2017-12-25T14:24:06.764Z,14.02
2017-12-25T14:26:35.823Z,13.92
2017-12-25T14:29:05.064Z,13.83
2017-12-25T14:31:34.882Z,13.80
2017-12-25T14:34:04.093Z,13.78
2017-12-25T14:36:33.066Z,13.67
2017-12-25T14:39:02.121Z,13.59
2017-12-25T14:41:31.268Z,13.54
2017-12-25T14:44:00.452Z,13.44
2017-12-25T14:46:30.328Z,13.42
2017-12-25T14:48:59.476Z,13.47
2017-12-25T14:51:31.291Z,13.39
2017-12-25T14:54:01.420Z,13.36
2017-12-25T14:56:30.404Z,13.36
2017-12-25T14:59:00.320Z,13.41
2017-12-25T15:01:29.625Z,13.41
2017-12-25T15:03:58.716Z,13.39
2017-12-25T15:06:29.464Z,13.29
2017-12-25T15:08:59.774Z,13.22
2017-12-25T15:11:29.080Z,13.17
2017-12-25T15:14:01.235Z,13.15
2017-12-25T15:16:30.379Z,13.17
2017-12-25T15:18:59.368Z,13.12
2017-12-25T15:21:29.408Z,13.03
2017-12-25T15:23:59.308Z,12.91
2017-12-25T15:26:29.281Z,12.91
2017-12-25T15:29:00.840Z,12.73
2017-12-25T15:31:30.039Z,12.64
2017-12-25T15:33:59.890Z,12.58
2017-12-25T15:36:28.946Z,12.54
2017-12-25T15:38:58.248Z,12.42
2017-12-25T15:41:27.848Z,12.51
2017-12-25T15:43:57.850Z,12.42
2017-12-25T15:46:27.942Z,12.40
2017-12-25T15:48:56.821Z,12.31
2017-12-25T15:51:28.777Z,12.23
2017-12-25T15:53:58.248Z,12.08
2017-12-25T15:56:27.243Z,12.02
2017-12-25T15:58:59.660Z,12.06
2017-12-25T16:01:29.433Z,12.03
2017-12-25T16:03:58.936Z,11.92
2017-12-25T16:06:28.754Z,11.90
2017-12-25T16:08:58.398Z,11.86
2017-12-25T16:11:28.442Z,11.74
2017-12-25T16:13:59.145Z,11.65
2017-12-25T16:16:29.189Z,11.52
2017-12-25T16:18:58.456Z,11.34
2017-12-25T16:21:29.304Z,11.23
2017-12-25T16:23:58.380Z,11.14
2017-12-25T16:26:28.380Z,10.98
2017-12-25T16:28:57.664Z,10.90
2017-12-25T16:31:27.913Z,10.78
2017-12-25T16:33:57.019Z,10.70
2017-12-25T16:36:28.215Z,10.59
2017-12-25T16:38:58.168Z,10.52
2017-12-25T16:41:28.319Z,10.41
2017-12-25T16:43:59.298Z,10.29
2017-12-25T16:46:29.001Z,10.15
2017-12-25T16:48:58.041Z,10.03
2017-12-25T16:51:28.185Z,9.94
2017-12-25T16:53:57.700Z,9.80
2017-12-25T16:56:26.692Z,9.71
2017-12-25T16:58:55.782Z,9.65
2017-12-25T17:01:24.856Z,9.56
2017-12-25T17:03:53.931Z,9.38
2017-12-25T17:06:25.336Z,9.26
2017-12-25T17:08:54.377Z,9.21
2017-12-25T17:11:24.260Z,9.11
2017-12-25T17:13:55.001Z,9.05
2017-12-25T17:16:24.238Z,8.94
2017-12-25T17:18:54.236Z,8.85
2017-12-25T17:23:58.420Z,8.98
2017-12-25T17:26:28.289Z,9.12
2017-12-25T17:28:58.144Z,9.28
2017-12-25T17:31:28.014Z,9.44
2017-12-25T17:33:57.862Z,9.56
2017-12-25T17:36:27.176Z,9.59
2017-12-25T17:38:56.688Z,9.64
2017-12-25T17:41:26.379Z,9.67
2017-12-25T17:43:56.262Z,9.79
2017-12-25T17:46:25.469Z,9.88
2017-12-25T17:48:54.955Z,10.01
2017-12-25T17:51:24.276Z,10.00
2017-12-25T17:53:53.333Z,10.18
2017-12-25T17:56:22.458Z,10.22
2017-12-25T17:58:51.597Z,10.22
2017-12-25T18:01:21.378Z,10.22
2017-12-25T18:03:50.372Z,10.27
2017-12-25T18:06:19.557Z,10.26
2017-12-25T18:08:48.449Z,10.17
2017-12-25T18:11:18.469Z,10.13
2017-12-25T18:13:48.531Z,10.06
2017-12-25T18:16:17.693Z,9.98
2017-12-25T18:18:47.590Z,9.93
2017-12-25T18:21:19.356Z,9.91
2017-12-25T18:23:49.241Z,9.85
2017-12-25T18:26:19.801Z,9.74
2017-12-25T18:28:50.746Z,9.69
2017-12-25T18:31:19.738Z,9.65
2017-12-25T18:33:49.589Z,9.49
2017-12-25T18:36:20.285Z,9.45
2017-12-25T18:38:49.224Z,9.51
2017-12-25T18:41:18.124Z,9.62
2017-12-25T18:43:47.169Z,9.73
2017-12-25T18:46:16.564Z,9.80
2017-12-25T18:48:45.564Z,9.89
2017-12-25T18:51:15.475Z,9.99
2017-12-25T18:53:45.440Z,10.05
2017-12-25T18:56:14.423Z,10.09
2017-12-25T18:58:44.296Z,10.02
2017-12-25T19:01:14.934Z,9.99
2017-12-25T19:03:43.932Z,10.01
2017-12-25T19:06:13.210Z,9.92
2017-12-25T19:08:42.181Z,9.79
2017-12-25T19:11:11.140Z,9.70
2017-12-25T19:13:40.915Z,9.57
2017-12-25T19:16:09.860Z,9.55
2017-12-25T19:18:38.838Z,9.41
2017-12-25T19:21:08.112Z,9.37
2017-12-25T19:23:37.356Z,9.31
2017-12-25T19:26:07.184Z,9.23
2017-12-25T19:28:36.981Z,9.13
2017-12-25T19:31:06.850Z,9.03
2017-12-25T19:33:35.945Z,9.00
2017-12-25T19:36:04.980Z,9.00
2017-12-25T19:38:35.060Z,9.04
2017-12-25T19:41:04.954Z,9.08
2017-12-25T19:43:34.830Z,9.28
2017-12-25T19:46:06.792Z,9.36
2017-12-25T19:48:35.838Z,9.31
2017-12-25T19:51:04.822Z,9.28
2017-12-25T19:53:33.773Z,9.27
2017-12-25T19:56:04.613Z,9.26
2017-12-25T19:58:36.207Z,9.18
2017-12-25T20:01:05.395Z,9.06
2017-12-25T20:03:34.398Z,9.01
2017-12-25T20:06:03.391Z,8.90
2017-12-25T20:08:32.389Z,8.85
2017-12-25T20:11:01.438Z,8.83
2017-12-25T20:13:32.072Z,8.72
2017-12-25T20:16:02.707Z,8.72
2017-12-25T20:18:33.543Z,8.69
2017-12-25T20:21:04.995Z,8.65
2017-12-25T20:23:34.845Z,8.69
2017-12-25T20:26:03.902Z,8.87
2017-12-25T20:28:36.076Z,8.94
2017-12-25T20:31:05.169Z,8.98
2017-12-25T20:33:35.993Z,9.10
2017-12-25T20:36:05.819Z,9.25
2017-12-25T20:38:34.857Z,9.32
2017-12-25T20:41:03.959Z,9.29
2017-12-25T20:46:08.262Z,9.28
2017-12-25T20:48:37.238Z,9.47
2017-12-25T20:51:06.233Z,9.59
2017-12-25T20:53:36.259Z,9.62
2017-12-25T20:56:05.344Z,9.61
2017-12-25T20:58:34.297Z,9.62
2017-12-25T21:01:06.199Z,9.61
2017-12-25T21:03:35.243Z,9.58
2017-12-25T21:06:04.224Z,9.61
2017-12-25T21:08:34.101Z,9.67
2017-12-25T21:11:03.402Z,9.65
2017-12-25T21:13:32.515Z,9.59
2017-12-25T21:16:01.564Z,9.53
2017-12-25T21:18:34.540Z,9.42
2017-12-25T21:21:03.574Z,9.33
2017-12-25T21:23:32.612Z,9.24
2017-12-25T21:26:03.504Z,9.23
2017-12-25T21:28:33.319Z,9.19
2017-12-25T21:31:03.645Z,9.14
2017-12-25T21:33:33.605Z,9.12
2017-12-25T21:36:02.716Z,9.05
2017-12-25T21:38:31.689Z,8.92
2017-12-25T21:41:01.773Z,8.78
2017-12-25T21:43:33.605Z,8.70
2017-12-25T21:46:03.592Z,8.62
2017-12-25T21:48:32.682Z,8.56
2017-12-25T21:51:01.634Z,8.47
2017-12-25T21:53:32.575Z,8.33
2017-12-25T21:56:01.517Z,8.19
2017-12-25T21:58:30.680Z,8.06
2017-12-25T22:01:01.708Z,7.99
2017-12-25T22:03:31.620Z,7.97
2017-12-25T22:06:03.309Z,7.98
2017-12-25T22:08:34.709Z,7.90
2017-12-25T22:11:03.790Z,7.82
2017-12-25T22:13:33.896Z,7.74
2017-12-25T22:16:03.087Z,7.64
2017-12-25T22:18:32.188Z,7.61
2017-12-25T22:21:01.583Z,7.63
2017-12-25T22:23:31.356Z,7.66
2017-12-25T22:26:00.450Z,7.74
2017-12-25T22:28:32.136Z,7.72
2017-12-25T22:31:01.140Z,7.66
2017-12-25T22:33:30.148Z,7.52
2017-12-25T22:36:01.269Z,7.38
2017-12-25T22:38:30.354Z,7.31
2017-12-25T22:41:00.551Z,7.27
2017-12-25T22:43:36.615Z,7.23
2017-12-25T22:46:06.482Z,7.16
2017-12-25T22:48:36.652Z,7.17
2017-12-25T22:51:09.733Z,7.15
2017-12-25T22:53:38.679Z,7.08
2017-12-25T22:56:07.627Z,7.06
2017-12-25T22:58:40.453Z,7.06
2017-12-25T23:01:15.566Z,7.07
2017-12-25T23:03:44.657Z,6.93
2017-12-25T23:06:14.624Z,6.87
2017-12-25T23:08:43.719Z,6.86
2017-12-25T23:13:50.034Z,6.83
2017-12-25T23:16:19.148Z,6.81
2017-12-25T23:18:49.310Z,6.77
2017-12-25T23:21:19.245Z,6.73
2017-12-25T23:23:48.371Z,6.66
2017-12-25T23:26:18.234Z,6.70
2017-12-25T23:28:47.287Z,6.77
2017-12-25T23:31:16.431Z,6.85
2017-12-25T23:33:48.350Z,6.85
2017-12-25T23:36:17.545Z,6.77
2017-12-25T23:38:47.270Z,6.73
2017-12-25T23:41:19.324Z,6.72
2017-12-25T23:43:49.379Z,6.74
2017-12-25T23:46:18.235Z,6.75
2017-12-25T23:48:49.072Z,6.69
2017-12-25T23:51:17.958Z,6.74
2017-12-25T23:53:48.832Z,6.74
2017-12-25T23:56:18.678Z,6.67
2017-12-25T23:58:47.706Z,6.55
